createdAt,value
2022-10-25T00:01:46.458Z,1.00
2022-10-25T00:04:14.671Z,1.00
2022-10-25T00:06:43.096Z,1.00
2022-10-25T00:09:11.715Z,1.00
2022-10-25T00:11:39.831Z,1.00
2022-10-25T00:14:09.876Z,1.00
2022-10-25T00:16:39.167Z,1.00
2022-10-25T00:19:07.508Z,1.00
2022-10-25T00:21:35.576Z,54.40
2022-10-25T00:24:04.927Z,68.70
2022-10-25T00:26:33.156Z,99.90
2022-10-25T00:29:01.978Z,99.90
2022-10-25T00:31:31.346Z,99.90
2022-10-25T00:33:59.472Z,99.90
2022-10-25T00:36:28.412Z,99.90
2022-10-25T00:38:58.801Z,99.90
2022-10-25T00:41:29.821Z,99.90
2022-10-25T00:44:18.634Z,99.90
2022-10-25T00:46:48.019Z,99.90
2022-10-25T00:49:20.146Z,99.90
2022-10-25T00:51:51.207Z,99.90
2022-10-25T00:54:23.936Z,99.90
2022-10-25T00:56:53.367Z,99.90
2022-10-25T00:59:25.611Z,99.90
2022-10-25T01:01:56.554Z,99.90
2022-10-25T01:04:29.657Z,99.90
2022-10-25T01:06:58.426Z,99.90
2022-10-25T01:09:28.571Z,99.90
2022-10-25T01:11:56.712Z,1.00
2022-10-25T01:14:26.817Z,99.90
2022-10-25T01:17:02.639Z,1.00
2022-10-25T01:19:57.834Z,1.00
2022-10-25T01:22:30.796Z,99.90
2022-10-25T01:25:35.429Z,99.90
2022-10-25T01:28:10.409Z,99.90
2022-10-25T01:31:08.156Z,99.90
2022-10-25T01:33:40.676Z,99.90
2022-10-25T01:36:17.562Z,99.90
2022-10-25T01:38:50.650Z,1.00
2022-10-25T01:41:25.963Z,1.00
2022-10-25T01:44:05.814Z,1.00
2022-10-25T01:46:45.380Z,99.90
2022-10-25T01:49:18.371Z,1.00
2022-10-25T01:51:46.372Z,1.00
2022-10-25T01:54:20.624Z,1.00
2022-10-25T01:56:59.258Z,1.00
2022-10-25T01:59:47.729Z,1.00
2022-10-25T02:02:25.452Z,1.00
2022-10-25T02:05:02.692Z,99.90
2022-10-25T02:07:38.528Z,99.90
2022-10-25T02:10:10.736Z,99.90
2022-10-25T02:12:51.385Z,99.90
2022-10-25T02:15:25.996Z,99.90
2022-10-25T02:17:59.872Z,99.90
2022-10-25T02:20:30.348Z,99.90
2022-10-25T02:23:00.559Z,99.90
2022-10-25T02:25:30.248Z,99.90
2022-10-25T02:28:01.944Z,99.90
2022-10-25T02:30:33.376Z,99.90
2022-10-25T02:33:03.153Z,1.00
2022-10-25T02:35:31.229Z,99.90
2022-10-25T02:37:59.339Z,99.90
2022-10-25T02:40:28.050Z,99.90
2022-10-25T02:42:56.139Z,99.90
2022-10-25T02:45:24.514Z,77.30
2022-10-25T02:47:52.656Z,1.00
2022-10-25T02:50:22.019Z,1.00
2022-10-25T02:52:50.244Z,1.00
2022-10-25T02:55:18.186Z,1.00
2022-10-25T02:57:46.202Z,1.00
2022-10-25T03:00:15.458Z,1.00
2022-10-25T03:02:43.439Z,1.00
2022-10-25T03:05:11.523Z,1.00
2022-10-25T03:07:40.915Z,1.00
2022-10-25T03:10:09.794Z,1.00
2022-10-25T03:12:37.764Z,1.00
2022-10-25T03:15:06.682Z,1.00
2022-10-25T03:17:34.606Z,1.00
2022-10-25T03:20:02.668Z,1.00
2022-10-25T03:22:31.930Z,1.00
2022-10-25T03:25:01.327Z,1.00
2022-10-25T03:27:29.307Z,1.00
2022-10-25T03:29:57.343Z,1.00
2022-10-25T03:32:25.435Z,1.00
2022-10-25T03:34:53.589Z,1.00
2022-10-25T03:37:21.617Z,1.00
2022-10-25T03:39:49.693Z,1.00
2022-10-25T03:42:19.002Z,1.00
2022-10-25T03:44:47.009Z,1.00
2022-10-25T03:47:14.945Z,1.00
2022-10-25T03:49:42.937Z,1.00
2022-10-25T03:52:11.145Z,1.00
2022-10-25T03:54:39.715Z,1.00
2022-10-25T03:57:07.658Z,1.00
2022-10-25T03:59:37.031Z,1.00
2022-10-25T04:02:05.275Z,1.00
2022-10-25T04:04:33.568Z,1.00
2022-10-25T04:07:01.680Z,1.00
2022-10-25T04:09:29.806Z,1.00
2022-10-25T04:11:57.775Z,1.00
2022-10-25T04:14:25.981Z,1.00
2022-10-25T04:16:55.301Z,1.00
2022-10-25T04:19:23.311Z,1.00
2022-10-25T04:21:51.306Z,1.00
2022-10-25T04:24:19.335Z,1.00
2022-10-25T04:26:47.330Z,1.00
2022-10-25T04:29:15.920Z,1.00
2022-10-25T04:31:44.155Z,1.00
2022-10-25T04:34:13.462Z,1.00
2022-10-25T04:36:41.485Z,1.00
2022-10-25T04:39:09.556Z,1.00
2022-10-25T04:41:37.730Z,1.00
2022-10-25T04:44:06.178Z,1.00
2022-10-25T04:46:34.271Z,1.00
2022-10-25T04:49:02.336Z,1.00
2022-10-25T04:51:31.680Z,1.00
2022-10-25T04:54:00.031Z,1.00
2022-10-25T04:56:30.082Z,1.00
2022-10-25T04:58:59.690Z,1.00
2022-10-25T05:01:27.994Z,1.00
2022-10-25T05:03:56.098Z,1.00
2022-10-25T05:06:26.760Z,1.00
2022-10-25T05:08:56.810Z,1.00
2022-10-25T05:11:26.037Z,1.00
2022-10-25T05:13:54.168Z,1.00
2022-10-25T05:16:24.986Z,1.00
2022-10-25T05:18:55.305Z,1.00
2022-10-25T05:24:01.895Z,1.00
2022-10-25T05:26:31.374Z,1.00
2022-10-25T05:28:59.972Z,1.00
2022-10-25T05:31:30.017Z,1.00
2022-10-25T05:34:00.148Z,1.00
2022-10-25T05:36:29.489Z,1.00
2022-10-25T05:38:59.194Z,1.00
2022-10-25T05:41:28.698Z,1.00
2022-10-25T05:43:59.821Z,1.00
2022-10-25T05:46:28.580Z,21.50
2022-10-25T05:48:59.444Z,54.10
2022-10-25T05:51:37.170Z,66.90
2022-10-25T05:54:08.974Z,61.20
2022-10-25T05:56:37.681Z,73.70
2022-10-25T05:59:08.875Z,99.90
2022-10-25T06:01:38.575Z,99.90
2022-10-25T06:04:07.280Z,99.90
2022-10-25T06:06:36.194Z,99.90
2022-10-25T06:09:06.943Z,99.90
2022-10-25T06:11:35.575Z,99.90
2022-10-25T06:14:03.758Z,61.60
2022-10-25T06:16:32.138Z,26.80
2022-10-25T06:19:00.303Z,62.60
2022-10-25T06:21:30.214Z,99.90
2022-10-25T06:23:59.913Z,73.80
2022-10-25T06:26:31.303Z,17.60
2022-10-25T06:29:01.321Z,1.00
2022-10-25T06:31:30.605Z,2.90
2022-10-25T06:34:00.556Z,1.00
2022-10-25T06:36:28.974Z,1.00
2022-10-25T06:38:59.679Z,1.00
2022-10-25T06:41:31.575Z,1.00
2022-10-25T06:44:05.384Z,1.00
2022-10-25T06:46:57.790Z,1.00
2022-10-25T06:49:24.966Z,1.00
2022-10-25T06:51:53.082Z,1.00
2022-10-25T06:54:21.119Z,1.00
2022-10-25T06:56:50.598Z,1.00
2022-10-25T06:59:20.348Z,1.00
2022-10-25T07:01:48.646Z,1.00
2022-10-25T07:04:16.959Z,1.00
2022-10-25T07:06:45.082Z,1.00
2022-10-25T07:09:13.406Z,1.00
2022-10-25T07:11:41.451Z,1.00
2022-10-25T07:14:11.777Z,1.00
2022-10-25T07:16:39.926Z,1.00
2022-10-25T07:19:08.461Z,1.00
2022-10-25T07:21:36.593Z,1.00
2022-10-25T07:24:04.991Z,1.00
2022-10-25T07:26:35.806Z,1.00
2022-10-25T07:29:05.130Z,1.00
2022-10-25T07:31:36.962Z,1.00
2022-10-25T07:34:06.119Z,1.00
2022-10-25T07:36:34.814Z,1.00
2022-10-25T07:39:02.844Z,1.00
2022-10-25T07:41:30.876Z,1.00
2022-10-25T07:43:58.982Z,99.90
2022-10-25T07:46:27.233Z,99.90
2022-10-25T07:48:56.624Z,99.90
2022-10-25T07:51:24.724Z,99.90
2022-10-25T07:53:54.327Z,99.90
2022-10-25T07:56:23.887Z,99.90
2022-10-25T07:58:52.831Z,99.90
2022-10-25T08:01:23.289Z,99.90
2022-10-25T08:03:51.905Z,99.90
2022-10-25T08:06:21.854Z,99.90
2022-10-25T08:08:50.244Z,99.90
2022-10-25T08:11:20.603Z,99.90
2022-10-25T08:13:50.887Z,99.90
2022-10-25T08:16:19.401Z,18.20
2022-10-25T08:18:47.478Z,27.50
2022-10-25T08:21:15.497Z,49.70
2022-10-25T08:23:44.950Z,50.10
2022-10-25T08:26:12.976Z,23.70
2022-10-25T08:28:40.989Z,65.30
2022-10-25T08:31:10.279Z,33.50
2022-10-25T08:33:38.820Z,69.40
2022-10-25T08:36:07.985Z,99.90
2022-10-25T08:38:36.052Z,99.90
2022-10-25T08:41:12.044Z,99.90
2022-10-25T08:44:09.474Z,28.50
2022-10-25T08:46:43.030Z,58.50
2022-10-25T08:49:19.506Z,1.00
2022-10-25T08:51:52.053Z,1.00
2022-10-25T08:54:26.314Z,1.00
2022-10-25T08:57:15.009Z,1.00
2022-10-25T08:59:48.609Z,1.00
2022-10-25T09:02:38.509Z,1.00
2022-10-25T09:05:15.743Z,1.00
2022-10-25T09:07:57.312Z,1.00
2022-10-25T09:10:40.288Z,1.00
2022-10-25T09:13:21.779Z,1.00
2022-10-25T09:15:59.577Z,1.00
2022-10-25T09:18:37.892Z,1.00
2022-10-25T09:21:21.496Z,1.00
2022-10-25T09:24:01.963Z,1.00
2022-10-25T09:27:00.171Z,1.00
2022-10-25T09:29:37.439Z,1.00
2022-10-25T09:32:13.651Z,1.00
2022-10-25T09:34:43.212Z,1.00
2022-10-25T09:37:21.001Z,1.00
2022-10-25T09:40:10.277Z,1.00
2022-10-25T09:42:46.442Z,1.00
2022-10-25T09:45:28.932Z,1.00
2022-10-25T09:48:13.955Z,1.00
2022-10-25T09:50:52.402Z,1.00
2022-10-25T09:53:24.799Z,1.00
2022-10-25T09:55:56.344Z,1.00
2022-10-25T09:58:32.446Z,1.00
2022-10-25T10:01:12.005Z,1.00
2022-10-25T10:03:46.670Z,1.00
2022-10-25T10:06:42.781Z,1.00
2022-10-25T10:09:28.907Z,1.00
2022-10-25T10:12:02.496Z,1.00
2022-10-25T10:14:38.655Z,1.00
2022-10-25T10:17:19.174Z,1.00
2022-10-25T10:20:20.783Z,1.00
2022-10-25T10:22:55.907Z,1.00
2022-10-25T10:25:30.794Z,1.00
2022-10-25T10:28:03.043Z,1.00
2022-10-25T10:30:39.025Z,1.00
2022-10-25T10:33:20.513Z,1.00
2022-10-25T10:35:58.892Z,1.00
2022-10-25T10:38:30.158Z,1.00
2022-10-25T10:41:16.772Z,1.00
2022-10-25T10:43:45.480Z,1.00
2022-10-25T10:46:20.129Z,1.00
2022-10-25T10:48:59.713Z,1.00
2022-10-25T10:51:44.033Z,1.00
2022-10-25T10:54:29.029Z,1.00
2022-10-25T10:57:01.669Z,1.00
2022-10-25T10:59:40.512Z,1.00
2022-10-25T11:02:32.859Z,1.00
2022-10-25T11:05:05.956Z,1.00
2022-10-25T11:07:38.552Z,1.00
2022-10-25T11:10:31.878Z,1.00
2022-10-25T11:13:17.734Z,1.00
2022-10-25T11:16:41.943Z,1.00
2022-10-25T11:19:30.041Z,1.00
2022-10-25T11:22:32.960Z,1.00
2022-10-25T11:25:24.045Z,1.00
2022-10-25T11:28:03.817Z,1.00
2022-10-25T11:30:40.674Z,1.00
2022-10-25T11:33:11.766Z,1.00
2022-10-25T11:36:04.729Z,1.00
2022-10-25T11:38:43.138Z,1.00
2022-10-25T11:41:22.605Z,1.00
2022-10-25T11:44:03.314Z,1.00
2022-10-25T11:46:37.902Z,1.00
2022-10-25T11:49:18.617Z,1.00
2022-10-25T11:52:02.327Z,1.00
2022-10-25T11:54:38.988Z,1.00
2022-10-25T11:57:16.567Z,1.00
2022-10-25T11:59:57.207Z,1.00
2022-10-25T12:02:43.723Z,1.00
2022-10-25T12:05:26.345Z,1.00
2022-10-25T12:08:02.601Z,1.00
2022-10-25T12:10:37.047Z,1.00
2022-10-25T12:13:13.306Z,1.00
2022-10-25T12:15:46.220Z,1.00
2022-10-25T12:18:21.502Z,1.00
2022-10-25T12:20:53.612Z,1.00
2022-10-25T12:23:24.446Z,1.00
2022-10-25T12:25:57.890Z,1.00
2022-10-25T12:28:32.161Z,1.00
2022-10-25T12:31:05.693Z,1.00
2022-10-25T12:33:40.912Z,1.00
2022-10-25T12:36:16.614Z,1.00
2022-10-25T12:38:44.709Z,1.00
2022-10-25T12:41:21.676Z,1.00
2022-10-25T12:44:08.184Z,1.00
2022-10-25T12:47:03.921Z,1.00
2022-10-25T12:53:15.262Z,1.00
2022-10-25T12:55:55.822Z,1.00
2022-10-25T12:58:43.184Z,1.00
2022-10-25T13:01:30.050Z,1.00
2022-10-25T13:04:31.809Z,1.00
2022-10-25T13:07:04.171Z,1.00
2022-10-25T13:09:35.656Z,1.00
2022-10-25T13:12:06.904Z,1.00
2022-10-25T13:14:39.221Z,1.00
2022-10-25T13:17:48.219Z,1.00
2022-10-25T13:20:50.941Z,1.00
2022-10-25T13:24:02.779Z,1.00
2022-10-25T13:26:54.032Z,1.00
2022-10-25T13:29:50.515Z,1.00
2022-10-25T13:32:21.195Z,1.00
2022-10-25T13:34:49.894Z,1.00
2022-10-25T13:37:42.171Z,1.00
2022-10-25T13:40:22.797Z,1.00
2022-10-25T13:43:00.889Z,1.00
2022-10-25T13:45:38.777Z,1.00
2022-10-25T13:48:18.382Z,1.00
2022-10-25T13:50:48.092Z,1.00
2022-10-25T13:53:22.381Z,1.00
2022-10-25T13:55:59.439Z,1.00
2022-10-25T13:58:46.969Z,1.00
2022-10-25T14:01:55.692Z,1.00
2022-10-25T14:04:40.753Z,1.00
2022-10-25T14:07:44.771Z,1.00
2022-10-25T14:10:21.839Z,1.00
2022-10-25T14:12:53.583Z,1.00
2022-10-25T14:15:42.368Z,1.00
2022-10-25T14:20:48.681Z,1.00
2022-10-25T14:23:22.183Z,1.00
2022-10-25T14:25:52.960Z,1.00
2022-10-25T14:28:24.624Z,1.00
2022-10-25T14:30:55.297Z,1.00
2022-10-25T14:33:26.355Z,1.00
2022-10-25T14:35:58.244Z,1.00
2022-10-25T14:38:28.761Z,1.00
2022-10-25T14:40:58.742Z,1.00
2022-10-25T14:43:30.381Z,1.00
2022-10-25T14:46:04.803Z,1.00
2022-10-25T14:48:33.590Z,1.00
2022-10-25T14:51:07.237Z,1.00
2022-10-25T14:53:36.890Z,1.00
2022-10-25T14:56:06.819Z,1.00
2022-10-25T14:58:41.999Z,1.00
2022-10-25T15:01:12.854Z,1.00
2022-10-25T15:03:43.763Z,1.00
2022-10-25T15:06:14.404Z,1.00
2022-10-25T15:08:49.140Z,1.00
2022-10-25T15:11:21.497Z,1.00
2022-10-25T15:13:51.036Z,1.00
2022-10-25T15:16:41.818Z,1.00
2022-10-25T15:19:20.392Z,1.00
2022-10-25T15:21:51.516Z,1.00
2022-10-25T15:24:22.404Z,1.00
2022-10-25T15:26:57.605Z,1.00
2022-10-25T15:29:45.530Z,1.00
2022-10-25T15:32:16.561Z,1.00
2022-10-25T15:34:46.687Z,1.00
2022-10-25T15:37:17.975Z,1.00
2022-10-25T15:39:47.707Z,1.00
2022-10-25T15:42:16.071Z,1.00
2022-10-25T15:44:45.323Z,1.00
2022-10-25T15:47:27.129Z,1.00
2022-10-25T15:49:55.617Z,1.00
2022-10-25T15:52:25.313Z,1.00
2022-10-25T15:54:53.893Z,1.00
2022-10-25T15:57:21.984Z,1.00
2022-10-25T15:59:49.987Z,1.00
2022-10-25T16:02:21.731Z,1.00
2022-10-25T16:04:50.104Z,1.00
2022-10-25T16:07:18.294Z,1.00
2022-10-25T16:09:47.737Z,1.00
2022-10-25T16:12:22.134Z,1.00
2022-10-25T16:14:52.004Z,1.00
2022-10-25T16:17:20.210Z,1.00
2022-10-25T16:19:48.430Z,1.00
2022-10-25T16:22:16.532Z,1.00
2022-10-25T16:24:44.538Z,1.00
2022-10-25T16:27:14.537Z,1.00
2022-10-25T16:29:43.040Z,1.00
2022-10-25T16:32:11.063Z,1.00
2022-10-25T16:34:42.392Z,1.00
2022-10-25T16:37:11.965Z,1.00
2022-10-25T16:39:40.401Z,1.00
2022-10-25T16:42:29.297Z,1.00
2022-10-25T16:44:58.209Z,1.00
2022-10-25T16:47:26.429Z,1.00
2022-10-25T16:49:55.300Z,1.00
2022-10-25T16:52:24.460Z,1.00
2022-10-25T16:54:52.926Z,1.00
2022-10-25T16:57:21.007Z,1.00
2022-10-25T16:59:51.226Z,1.00
2022-10-25T17:02:21.222Z,1.00
2022-10-25T17:04:50.179Z,1.00
2022-10-25T17:07:18.787Z,1.00
2022-10-25T17:09:47.081Z,1.00
2022-10-25T17:12:15.136Z,1.00
2022-10-25T17:14:43.229Z,1.00
2022-10-25T17:17:12.894Z,1.00
2022-10-25T17:19:41.158Z,1.00
2022-10-25T17:22:09.569Z,1.00
2022-10-25T17:24:37.719Z,1.00
2022-10-25T17:27:07.009Z,1.00
2022-10-25T17:29:35.625Z,1.00
2022-10-25T17:32:03.854Z,1.00
2022-10-25T17:34:33.225Z,1.00
2022-10-25T17:37:02.215Z,1.00
2022-10-25T17:39:31.075Z,1.00
2022-10-25T17:41:59.721Z,1.00
2022-10-25T17:44:27.810Z,1.00
2022-10-25T17:46:58.473Z,1.00
2022-10-25T17:49:29.032Z,1.00
2022-10-25T17:51:58.543Z,1.00
2022-10-25T17:54:26.645Z,1.00
2022-10-25T17:56:58.445Z,1.00
2022-10-25T17:59:28.176Z,1.00
2022-10-25T18:01:56.689Z,1.00
2022-10-25T18:04:24.969Z,1.00
2022-10-25T18:06:53.167Z,1.00
2022-10-25T18:09:22.635Z,22.20
2022-10-25T18:11:50.754Z,93.70
2022-10-25T18:14:18.898Z,99.90
2022-10-25T18:16:47.181Z,99.90
2022-10-25T18:19:16.392Z,99.90
2022-10-25T18:21:44.569Z,99.90
2022-10-25T18:24:14.154Z,99.90
2022-10-25T18:26:43.938Z,99.90
2022-10-25T18:29:13.774Z,99.90
2022-10-25T18:31:42.555Z,99.90
2022-10-25T18:34:10.754Z,99.90
2022-10-25T18:36:38.818Z,99.90
2022-10-25T18:39:07.198Z,99.90
2022-10-25T18:41:35.828Z,99.90
2022-10-25T18:44:05.711Z,99.90
2022-10-25T18:46:33.730Z,99.90
2022-10-25T18:49:01.925Z,99.90
2022-10-25T18:51:31.999Z,99.90
2022-10-25T18:54:02.274Z,99.90
2022-10-25T18:56:31.570Z,99.90
2022-10-25T18:58:59.997Z,1.00
2022-10-25T19:01:32.653Z,1.00
2022-10-25T19:04:04.031Z,1.00
2022-10-25T19:06:33.819Z,1.00
2022-10-25T19:09:02.913Z,1.00
2022-10-25T19:11:32.850Z,1.00
2022-10-25T19:14:01.433Z,1.00
2022-10-25T19:16:30.989Z,1.00
2022-10-25T19:19:03.250Z,1.00
2022-10-25T19:21:31.619Z,99.90
2022-10-25T19:23:59.629Z,99.90
2022-10-25T19:26:27.822Z,99.90
2022-10-25T19:28:58.248Z,99.90
2022-10-25T19:31:27.366Z,99.90
2022-10-25T19:34:00.170Z,99.90
2022-10-25T19:36:28.453Z,99.90
2022-10-25T19:38:56.894Z,99.90
2022-10-25T19:41:25.674Z,99.90
2022-10-25T19:43:56.373Z,99.90
2022-10-25T19:46:24.729Z,1.00
2022-10-25T19:48:53.413Z,1.00
2022-10-25T19:51:22.851Z,1.00
2022-10-25T19:53:51.065Z,1.00
2022-10-25T19:56:20.928Z,1.00
2022-10-25T19:58:49.494Z,1.00
2022-10-25T20:01:19.946Z,99.90
2022-10-25T20:03:50.525Z,1.00
2022-10-25T20:06:24.323Z,99.90
2022-10-25T20:08:55.334Z,1.00
2022-10-25T20:11:25.076Z,99.90
2022-10-25T20:13:54.513Z,1.00
2022-10-25T20:16:23.549Z,1.00
2022-10-25T20:18:52.775Z,1.00
2022-10-25T20:21:23.152Z,1.00
2022-10-25T20:23:57.538Z,1.00
2022-10-25T20:26:27.407Z,1.00
2022-10-25T20:28:56.604Z,1.00
2022-10-25T20:31:25.799Z,1.00
2022-10-25T20:33:54.313Z,1.00
2022-10-25T20:36:23.090Z,1.00
2022-10-25T20:38:51.286Z,1.00
2022-10-25T20:41:21.976Z,1.00
2022-10-25T20:43:51.631Z,1.00
2022-10-25T20:46:20.739Z,1.00
2022-10-25T20:48:49.176Z,1.00
2022-10-25T20:51:18.215Z,1.00
2022-10-25T20:53:48.653Z,1.00
2022-10-25T20:56:17.924Z,1.00
2022-10-25T20:58:47.715Z,1.00
2022-10-25T21:01:15.887Z,1.00
2022-10-25T21:03:44.072Z,1.00
2022-10-25T21:06:13.372Z,1.00
2022-10-25T21:08:41.829Z,1.00
2022-10-25T21:11:13.187Z,1.00
2022-10-25T21:13:41.321Z,1.00
2022-10-25T21:16:12.326Z,1.00
2022-10-25T21:18:40.688Z,1.00
2022-10-25T21:21:11.002Z,1.00
2022-10-25T21:23:39.206Z,1.00
2022-10-25T21:26:09.929Z,1.00
2022-10-25T21:28:39.700Z,1.00
2022-10-25T21:31:11.257Z,1.00
2022-10-25T21:33:41.697Z,1.00
2022-10-25T21:36:12.523Z,1.00
2022-10-25T21:38:41.488Z,1.00
2022-10-25T21:41:10.803Z,1.00
2022-10-25T21:43:42.194Z,1.00
2022-10-25T21:46:11.833Z,1.00
2022-10-25T21:48:40.138Z,1.00
2022-10-25T21:51:08.843Z,1.00
2022-10-25T21:53:36.880Z,1.00
2022-10-25T21:56:07.030Z,1.00
2022-10-25T21:58:35.144Z,1.00
2022-10-25T22:01:03.579Z,1.00
2022-10-25T22:03:33.182Z,1.00
2022-10-25T22:06:01.219Z,1.00
2022-10-25T22:08:29.369Z,1.00
2022-10-25T22:13:28.286Z,1.00
2022-10-25T22:16:01.143Z,1.00
2022-10-25T22:18:29.502Z,1.00
2022-10-25T22:21:00.760Z,1.00
2022-10-25T22:23:30.804Z,1.00
2022-10-25T22:26:02.297Z,1.00
2022-10-25T22:28:30.417Z,1.00
2022-10-25T22:30:58.960Z,1.00
2022-10-25T22:33:26.997Z,1.00
2022-10-25T22:35:55.277Z,1.00
2022-10-25T22:38:24.724Z,1.00
2022-10-25T22:40:59.564Z,1.00
2022-10-25T22:43:27.910Z,1.00
2022-10-25T22:45:56.079Z,1.00
2022-10-25T22:48:24.193Z,21.50
2022-10-25T22:50:53.698Z,1.00
2022-10-25T22:53:23.939Z,1.00
2022-10-25T22:55:56.808Z,1.00
2022-10-25T22:58:25.829Z,1.00
2022-10-25T23:01:00.350Z,1.00
2022-10-25T23:03:28.519Z,1.00
2022-10-25T23:06:00.220Z,1.00
2022-10-25T23:08:30.652Z,1.00
2022-10-25T23:11:00.132Z,1.00
2022-10-25T23:13:28.359Z,1.00
2022-10-25T23:15:56.367Z,1.00
2022-10-25T23:18:25.624Z,1.00
2022-10-25T23:20:55.490Z,20.30
2022-10-25T23:23:24.169Z,99.90
2022-10-25T23:25:54.490Z,76.40
2022-10-25T23:28:22.814Z,99.90
2022-10-25T23:30:50.803Z,99.90
2022-10-25T23:33:18.965Z,99.90
2022-10-25T23:35:49.049Z,99.90
2022-10-25T23:38:19.813Z,99.90
2022-10-25T23:40:49.971Z,99.90
2022-10-25T23:43:21.052Z,99.90
2022-10-25T23:45:53.059Z,99.90
2022-10-25T23:48:23.602Z,99.90
2022-10-25T23:50:57.654Z,1.00
2022-10-25T23:53:27.065Z,1.00
2022-10-25T23:55:58.719Z,1.00
2022-10-25T23:58:31.562Z,1.00
